sensor_id;sensor_type;location;lat;lon;timestamp;P1;durP1;ratioP1;P2;durP2;ratioP2
35839;SDS011;35514;50.504;30.500;2023-06-22T00:00:27;25.90;;;12.80;;
35839;SDS011;35514;50.504;30.500;2023-06-22T00:02:55;22.65;;;12.73;;
35839;SDS011;35514;50.504;30.500;2023-06-22T00:05:23;27.83;;;13.48;;
35839;SDS011;35514;50.504;30.500;2023-06-22T00:07:51;26.15;;;13.00;;
35839;SDS011;35514;50.504;30.500;2023-06-22T00:10:20;26.02;;;12.55;;
35839;SDS011;35514;50.504;30.500;2023-06-22T00:12:48;21.05;;;12.15;;
35839;SDS011;35514;50.504;30.500;2023-06-22T00:15:16;22.30;;;12.73;;
35839;SDS011;35514;50.504;30.500;2023-06-22T00:17:44;21.15;;;12.25;;
35839;SDS011;35514;50.504;30.500;2023-06-22T00:20:11;26.77;;;12.75;;
35839;SDS011;35514;50.504;30.500;2023-06-22T00:22:41;26.40;;;11.75;;
35839;SDS011;35514;50.504;30.500;2023-06-22T00:25:09;21.05;;;11.30;;
35839;SDS011;35514;50.504;30.500;2023-06-22T00:27:38;21.27;;;11.57;;
35839;SDS011;35514;50.504;30.500;2023-06-22T00:30:07;21.95;;;11.00;;
35839;SDS011;35514;50.504;30.500;2023-06-22T00:32:35;21.90;;;11.75;;
35839;SDS011;35514;50.504;30.500;2023-06-22T00:35:03;21.33;;;11.73;;
35839;SDS011;35514;50.504;30.500;2023-06-22T00:37:30;21.30;;;11.90;;
35839;SDS011;35514;50.504;30.500;2023-06-22T00:39:58;28.40;;;12.65;;
35839;SDS011;35514;50.504;30.500;2023-06-22T00:42:26;19.67;;;10.55;;
35839;SDS011;35514;50.504;30.500;2023-06-22T00:44:55;20.48;;;11.45;;
35839;SDS011;35514;50.504;30.500;2023-06-22T00:47:23;22.27;;;11.65;;
35839;SDS011;35514;50.504;30.500;2023-06-22T00:49:51;21.70;;;11.85;;
35839;SDS011;35514;50.504;30.500;2023-06-22T00:52:19;24.38;;;11.52;;
35839;SDS011;35514;50.504;30.500;2023-06-22T00:54:53;21.30;;;11.43;;
35839;SDS011;35514;50.504;30.500;2023-06-22T00:57:21;28.00;;;12.13;;
35839;SDS011;35514;50.504;30.500;2023-06-22T00:59:49;24.52;;;11.77;;
35839;SDS011;35514;50.504;30.500;2023-06-22T01:02:18;20.02;;;11.80;;
35839;SDS011;35514;50.504;30.500;2023-06-22T01:04:46;21.60;;;11.95;;
35839;SDS011;35514;50.504;30.500;2023-06-22T01:07:17;22.15;;;11.93;;
35839;SDS011;35514;50.504;30.500;2023-06-22T01:09:53;31.80;;;15.20;;
35839;SDS011;35514;50.504;30.500;2023-06-22T01:12:24;21.35;;;11.00;;
35839;SDS011;35514;50.504;30.500;2023-06-22T01:14:54;24.27;;;11.63;;
35839;SDS011;35514;50.504;30.500;2023-06-22T01:17:24;21.95;;;11.40;;
35839;SDS011;35514;50.504;30.500;2023-06-22T01:19:53;23.23;;;12.63;;
35839;SDS011;35514;50.504;30.500;2023-06-22T01:22:24;22.20;;;12.52;;
35839;SDS011;35514;50.504;30.500;2023-06-22T01:24:55;20.25;;;11.52;;
35839;SDS011;35514;50.504;30.500;2023-06-22T01:27:28;26.83;;;12.23;;
35839;SDS011;35514;50.504;30.500;2023-06-22T01:30:00;30.95;;;12.95;;
35839;SDS011;35514;50.504;30.500;2023-06-22T01:32:32;23.30;;;12.77;;
35839;SDS011;35514;50.504;30.500;2023-06-22T01:35:01;29.80;;;12.98;;
35839;SDS011;35514;50.504;30.500;2023-06-22T01:37:30;21.95;;;11.55;;
35839;SDS011;35514;50.504;30.500;2023-06-22T01:39:58;24.23;;;11.35;;
35839;SDS011;35514;50.504;30.500;2023-06-22T01:42:26;23.55;;;13.00;;
35839;SDS011;35514;50.504;30.500;2023-06-22T01:44:54;20.27;;;11.52;;
35839;SDS011;35514;50.504;30.500;2023-06-22T01:47:24;24.63;;;11.93;;
35839;SDS011;35514;50.504;30.500;2023-06-22T01:49:54;23.60;;;11.90;;
35839;SDS011;35514;50.504;30.500;2023-06-22T01:52:22;27.40;;;11.95;;
35839;SDS011;35514;50.504;30.500;2023-06-22T01:54:49;25.45;;;12.18;;
35839;SDS011;35514;50.504;30.500;2023-06-22T01:57:17;22.02;;;12.20;;
35839;SDS011;35514;50.504;30.500;2023-06-22T01:59:48;21.70;;;12.30;;
35839;SDS011;35514;50.504;30.500;2023-06-22T02:02:19;25.23;;;13.38;;
35839;SDS011;35514;50.504;30.500;2023-06-22T02:04:55;27.02;;;12.52;;
35839;SDS011;35514;50.504;30.500;2023-06-22T02:07:24;23.15;;;11.95;;
35839;SDS011;35514;50.504;30.500;2023-06-22T02:09:55;25.88;;;12.02;;
35839;SDS011;35514;50.504;30.500;2023-06-22T02:12:24;27.50;;;13.93;;
35839;SDS011;35514;50.504;30.500;2023-06-22T02:14:54;27.85;;;13.73;;
35839;SDS011;35514;50.504;30.500;2023-06-22T02:17:22;25.30;;;12.18;;
35839;SDS011;35514;50.504;30.500;2023-06-22T02:19:51;24.38;;;13.00;;
35839;SDS011;35514;50.504;30.500;2023-06-22T02:22:20;25.75;;;12.65;;
35839;SDS011;35514;50.504;30.500;2023-06-22T02:24:48;23.70;;;12.48;;
35839;SDS011;35514;50.504;30.500;2023-06-22T02:27:15;24.02;;;11.95;;
35839;SDS011;35514;50.504;30.500;2023-06-22T02:29:43;21.65;;;12.80;;
35839;SDS011;35514;50.504;30.500;2023-06-22T02:32:11;21.88;;;12.43;;
35839;SDS011;35514;50.504;30.500;2023-06-22T02:34:39;25.17;;;13.30;;
35839;SDS011;35514;50.504;30.500;2023-06-22T02:37:06;27.73;;;12.88;;
35839;SDS011;35514;50.504;30.500;2023-06-22T02:39:35;32.90;;;12.50;;
35839;SDS011;35514;50.504;30.500;2023-06-22T02:42:04;27.90;;;12.20;;
35839;SDS011;35514;50.504;30.500;2023-06-22T02:44:32;27.23;;;12.57;;
35839;SDS011;35514;50.504;30.500;2023-06-22T02:46:59;22.05;;;11.77;;
35839;SDS011;35514;50.504;30.500;2023-06-22T02:49:27;21.65;;;11.18;;
35839;SDS011;35514;50.504;30.500;2023-06-22T02:51:55;23.73;;;12.45;;
35839;SDS011;35514;50.504;30.500;2023-06-22T02:54:23;24.52;;;11.50;;
35839;SDS011;35514;50.504;30.500;2023-06-22T02:56:52;22.25;;;11.77;;
35839;SDS011;35514;50.504;30.500;2023-06-22T02:59:20;22.40;;;11.90;;
35839;SDS011;35514;50.504;30.500;2023-06-22T03:01:50;21.15;;;10.52;;
35839;SDS011;35514;50.504;30.500;2023-06-22T03:04:18;20.83;;;9.85;;
35839;SDS011;35514;50.504;30.500;2023-06-22T03:06:46;23.50;;;10.85;;
35839;SDS011;35514;50.504;30.500;2023-06-22T03:09:17;21.38;;;10.95;;
35839;SDS011;35514;50.504;30.500;2023-06-22T03:11:45;21.05;;;10.45;;
35839;SDS011;35514;50.504;30.500;2023-06-22T03:14:14;21.15;;;10.63;;
35839;SDS011;35514;50.504;30.500;2023-06-22T03:16:42;22.52;;;10.70;;
35839;SDS011;35514;50.504;30.500;2023-06-22T03:19:10;23.00;;;11.70;;
35839;SDS011;35514;50.504;30.500;2023-06-22T03:21:38;22.35;;;11.57;;
35839;SDS011;35514;50.504;30.500;2023-06-22T03:24:06;20.88;;;10.07;;
35839;SDS011;35514;50.504;30.500;2023-06-22T03:26:34;21.85;;;11.15;;
35839;SDS011;35514;50.504;30.500;2023-06-22T03:29:02;21.85;;;10.48;;
35839;SDS011;35514;50.504;30.500;2023-06-22T03:31:31;21.42;;;10.20;;
35839;SDS011;35514;50.504;30.500;2023-06-22T03:33:59;19.55;;;10.07;;
35839;SDS011;35514;50.504;30.500;2023-06-22T03:36:27;17.73;;;9.98;;
35839;SDS011;35514;50.504;30.500;2023-06-22T03:38:55;19.10;;;10.07;;
35839;SDS011;35514;50.504;30.500;2023-06-22T03:41:23;22.58;;;10.52;;
35839;SDS011;35514;50.504;30.500;2023-06-22T03:43:52;19.65;;;10.55;;
35839;SDS011;35514;50.504;30.500;2023-06-22T03:46:19;20.55;;;9.60;;
35839;SDS011;35514;50.504;30.500;2023-06-22T03:48:49;18.10;;;10.30;;
35839;SDS011;35514;50.504;30.500;2023-06-22T03:51:16;19.65;;;9.73;;
35839;SDS011;35514;50.504;30.500;2023-06-22T03:53:44;16.85;;;9.82;;
35839;SDS011;35514;50.504;30.500;2023-06-22T03:56:12;17.30;;;9.30;;
35839;SDS011;35514;50.504;30.500;2023-06-22T03:58:46;15.82;;;9.52;;
35839;SDS011;35514;50.504;30.500;2023-06-22T04:01:14;19.13;;;10.23;;
35839;SDS011;35514;50.504;30.500;2023-06-22T04:03:43;15.70;;;8.43;;
35839;SDS011;35514;50.504;30.500;2023-06-22T04:06:12;15.95;;;8.68;;
35839;SDS011;35514;50.504;30.500;2023-06-22T04:08:40;19.48;;;9.60;;
35839;SDS011;35514;50.504;30.500;2023-06-22T04:11:08;17.20;;;8.50;;
35839;SDS011;35514;50.504;30.500;2023-06-22T04:13:36;16.73;;;8.50;;
35839;SDS011;35514;50.504;30.500;2023-06-22T04:16:04;21.33;;;8.98;;
35839;SDS011;35514;50.504;30.500;2023-06-22T04:18:32;19.20;;;10.25;;
35839;SDS011;35514;50.504;30.500;2023-06-22T04:21:00;15.55;;;9.68;;
35839;SDS011;35514;50.504;30.500;2023-06-22T04:23:29;17.90;;;10.15;;
35839;SDS011;35514;50.504;30.500;2023-06-22T04:25:57;23.25;;;9.35;;
35839;SDS011;35514;50.504;30.500;2023-06-22T04:28:24;17.63;;;9.30;;
35839;SDS011;35514;50.504;30.500;2023-06-22T04:30:53;20.15;;;9.57;;
35839;SDS011;35514;50.504;30.500;2023-06-22T04:33:24;19.20;;;9.70;;
35839;SDS011;35514;50.504;30.500;2023-06-22T04:35:52;20.65;;;10.70;;
35839;SDS011;35514;50.504;30.500;2023-06-22T04:38:20;17.55;;;9.50;;
35839;SDS011;35514;50.504;30.500;2023-06-22T04:40:50;15.02;;;9.52;;
35839;SDS011;35514;50.504;30.500;2023-06-22T04:43:19;18.55;;;9.05;;
35839;SDS011;35514;50.504;30.500;2023-06-22T04:45:47;20.33;;;9.13;;
35839;SDS011;35514;50.504;30.500;2023-06-22T04:48:19;20.42;;;10.00;;
35839;SDS011;35514;50.504;30.500;2023-06-22T04:50:46;19.92;;;9.52;;
35839;SDS011;35514;50.504;30.500;2023-06-22T04:53:14;19.65;;;9.93;;
35839;SDS011;35514;50.504;30.500;2023-06-22T04:55:42;17.98;;;9.48;;
35839;SDS011;35514;50.504;30.500;2023-06-22T04:58:13;20.40;;;9.90;;
35839;SDS011;35514;50.504;30.500;2023-06-22T05:00:41;19.30;;;10.00;;
35839;SDS011;35514;50.504;30.500;2023-06-22T05:03:12;18.90;;;10.40;;
35839;SDS011;35514;50.504;30.500;2023-06-22T05:05:46;17.08;;;7.90;;
35839;SDS011;35514;50.504;30.500;2023-06-22T05:08:14;17.20;;;10.15;;
35839;SDS011;35514;50.504;30.500;2023-06-22T05:10:41;16.67;;;9.32;;
35839;SDS011;35514;50.504;30.500;2023-06-22T05:13:30;18.67;;;9.10;;
35839;SDS011;35514;50.504;30.500;2023-06-22T05:15:58;22.13;;;9.10;;
35839;SDS011;35514;50.504;30.500;2023-06-22T05:18:28;19.23;;;8.85;;
35839;SDS011;35514;50.504;30.500;2023-06-22T05:20:57;14.23;;;8.52;;
35839;SDS011;35514;50.504;30.500;2023-06-22T05:23:26;14.95;;;8.60;;
35839;SDS011;35514;50.504;30.500;2023-06-22T05:25:54;18.85;;;8.68;;
35839;SDS011;35514;50.504;30.500;2023-06-22T05:28:24;18.38;;;8.82;;
35839;SDS011;35514;50.504;30.500;2023-06-22T05:30:54;16.63;;;9.60;;
35839;SDS011;35514;50.504;30.500;2023-06-22T05:33:21;17.10;;;9.10;;
35839;SDS011;35514;50.504;30.500;2023-06-22T05:35:49;18.65;;;8.70;;
35839;SDS011;35514;50.504;30.500;2023-06-22T05:38:17;13.88;;;7.97;;
35839;SDS011;35514;50.504;30.500;2023-06-22T05:40:45;15.43;;;9.52;;
35839;SDS011;35514;50.504;30.500;2023-06-22T05:43:13;16.70;;;8.65;;
35839;SDS011;35514;50.504;30.500;2023-06-22T05:45:41;17.75;;;8.25;;
35839;SDS011;35514;50.504;30.500;2023-06-22T05:48:10;18.15;;;9.60;;
35839;SDS011;35514;50.504;30.500;2023-06-22T05:50:38;16.33;;;8.70;;
35839;SDS011;35514;50.504;30.500;2023-06-22T05:53:06;11.13;;;6.78;;
35839;SDS011;35514;50.504;30.500;2023-06-22T05:55:34;12.85;;;7.15;;
35839;SDS011;35514;50.504;30.500;2023-06-22T05:58:02;20.17;;;7.50;;
35839;SDS011;35514;50.504;30.500;2023-06-22T06:00:30;10.75;;;6.80;;
35839;SDS011;35514;50.504;30.500;2023-06-22T06:02:59;13.93;;;7.20;;
35839;SDS011;35514;50.504;30.500;2023-06-22T06:05:31;11.60;;;7.05;;
35839;SDS011;35514;50.504;30.500;2023-06-22T06:07:59;13.20;;;7.70;;
35839;SDS011;35514;50.504;30.500;2023-06-22T06:10:27;16.05;;;7.70;;
35839;SDS011;35514;50.504;30.500;2023-06-22T06:12:56;14.15;;;6.43;;
35839;SDS011;35514;50.504;30.500;2023-06-22T06:15:24;15.30;;;7.40;;
35839;SDS011;35514;50.504;30.500;2023-06-22T06:17:52;13.20;;;7.40;;
35839;SDS011;35514;50.504;30.500;2023-06-22T06:20:21;16.05;;;7.47;;
35839;SDS011;35514;50.504;30.500;2023-06-22T06:22:50;12.10;;;7.63;;
35839;SDS011;35514;50.504;30.500;2023-06-22T06:25:18;12.13;;;7.30;;
35839;SDS011;35514;50.504;30.500;2023-06-22T06:27:48;13.57;;;7.28;;
35839;SDS011;35514;50.504;30.500;2023-06-22T06:30:17;15.02;;;7.25;;
35839;SDS011;35514;50.504;30.500;2023-06-22T06:32:46;12.63;;;6.80;;
35839;SDS011;35514;50.504;30.500;2023-06-22T06:35:14;14.90;;;7.45;;
35839;SDS011;35514;50.504;30.500;2023-06-22T06:37:43;12.38;;;6.80;;
35839;SDS011;35514;50.504;30.500;2023-06-22T06:40:12;13.20;;;7.72;;
35839;SDS011;35514;50.504;30.500;2023-06-22T06:42:42;13.80;;;6.82;;
35839;SDS011;35514;50.504;30.500;2023-06-22T06:45:11;14.32;;;7.22;;
35839;SDS011;35514;50.504;30.500;2023-06-22T06:47:39;10.80;;;6.43;;
35839;SDS011;35514;50.504;30.500;2023-06-22T06:50:08;10.80;;;6.85;;
35839;SDS011;35514;50.504;30.500;2023-06-22T06:52:36;11.18;;;6.70;;
35839;SDS011;35514;50.504;30.500;2023-06-22T06:55:05;13.45;;;7.78;;
35839;SDS011;35514;50.504;30.500;2023-06-22T06:57:36;11.30;;;6.63;;
35839;SDS011;35514;50.504;30.500;2023-06-22T07:00:05;15.13;;;6.70;;
35839;SDS011;35514;50.504;30.500;2023-06-22T07:02:38;10.73;;;7.00;;
35839;SDS011;35514;50.504;30.500;2023-06-22T07:05:06;9.02;;;5.68;;
35839;SDS011;35514;50.504;30.500;2023-06-22T07:07:34;9.27;;;6.32;;
35839;SDS011;35514;50.504;30.500;2023-06-22T07:10:04;8.07;;;5.80;;
35839;SDS011;35514;50.504;30.500;2023-06-22T07:12:32;9.00;;;5.72;;
35839;SDS011;35514;50.504;30.500;2023-06-22T07:15:02;11.27;;;5.60;;
35839;SDS011;35514;50.504;30.500;2023-06-22T07:17:30;8.05;;;5.40;;
35839;SDS011;35514;50.504;30.500;2023-06-22T07:19:58;8.38;;;4.95;;
35839;SDS011;35514;50.504;30.500;2023-06-22T07:22:26;6.85;;;5.15;;
35839;SDS011;35514;50.504;30.500;2023-06-22T07:24:54;7.88;;;5.50;;
35839;SDS011;35514;50.504;30.500;2023-06-22T07:27:22;9.95;;;5.65;;
35839;SDS011;35514;50.504;30.500;2023-06-22T07:29:50;7.85;;;6.43;;
35839;SDS011;35514;50.504;30.500;2023-06-22T07:32:19;9.30;;;4.88;;
35839;SDS011;35514;50.504;30.500;2023-06-22T07:34:47;9.23;;;5.18;;
35839;SDS011;35514;50.504;30.500;2023-06-22T07:37:14;7.72;;;5.68;;
35839;SDS011;35514;50.504;30.500;2023-06-22T07:39:42;6.90;;;4.43;;
35839;SDS011;35514;50.504;30.500;2023-06-22T07:42:10;9.25;;;4.60;;
35839;SDS011;35514;50.504;30.500;2023-06-22T07:44:38;7.18;;;5.07;;
35839;SDS011;35514;50.504;30.500;2023-06-22T07:47:06;6.93;;;4.63;;
35839;SDS011;35514;50.504;30.500;2023-06-22T07:49:35;7.53;;;5.38;;
35839;SDS011;35514;50.504;30.500;2023-06-22T07:52:03;7.95;;;5.07;;
35839;SDS011;35514;50.504;30.500;2023-06-22T07:54:32;10.75;;;4.95;;
35839;SDS011;35514;50.504;30.500;2023-06-22T07:57:00;6.53;;;4.20;;
35839;SDS011;35514;50.504;30.500;2023-06-22T07:59:28;10.93;;;6.15;;
35839;SDS011;35514;50.504;30.500;2023-06-22T08:01:55;8.80;;;4.43;;
35839;SDS011;35514;50.504;30.500;2023-06-22T08:04:23;7.38;;;4.28;;
35839;SDS011;35514;50.504;30.500;2023-06-22T08:06:54;7.93;;;4.20;;
35839;SDS011;35514;50.504;30.500;2023-06-22T08:09:23;6.88;;;4.70;;
35839;SDS011;35514;50.504;30.500;2023-06-22T08:11:50;5.07;;;3.78;;
35839;SDS011;35514;50.504;30.500;2023-06-22T08:14:18;9.20;;;4.00;;
35839;SDS011;35514;50.504;30.500;2023-06-22T08:16:46;10.93;;;5.35;;
35839;SDS011;35514;50.504;30.500;2023-06-22T08:19:14;5.90;;;4.40;;
35839;SDS011;35514;50.504;30.500;2023-06-22T08:21:41;8.57;;;4.40;;
35839;SDS011;35514;50.504;30.500;2023-06-22T08:24:11;4.95;;;4.00;;
35839;SDS011;35514;50.504;30.500;2023-06-22T08:26:39;7.10;;;4.78;;
35839;SDS011;35514;50.504;30.500;2023-06-22T08:29:06;8.93;;;4.57;;
35839;SDS011;35514;50.504;30.500;2023-06-22T08:31:34;6.80;;;4.82;;
35839;SDS011;35514;50.504;30.500;2023-06-22T08:34:02;6.55;;;4.40;;
35839;SDS011;35514;50.504;30.500;2023-06-22T08:36:30;6.38;;;4.65;;
35839;SDS011;35514;50.504;30.500;2023-06-22T08:39:04;7.13;;;4.45;;
35839;SDS011;35514;50.504;30.500;2023-06-22T08:41:33;8.77;;;4.70;;
35839;SDS011;35514;50.504;30.500;2023-06-22T08:44:00;17.92;;;4.93;;
35839;SDS011;35514;50.504;30.500;2023-06-22T08:46:29;6.05;;;4.38;;
35839;SDS011;35514;50.504;30.500;2023-06-22T08:48:59;8.23;;;5.53;;
35839;SDS011;35514;50.504;30.500;2023-06-22T08:51:27;7.47;;;4.45;;
35839;SDS011;35514;50.504;30.500;2023-06-22T08:53:56;6.85;;;5.32;;
35839;SDS011;35514;50.504;30.500;2023-06-22T08:56:23;15.02;;;7.35;;
35839;SDS011;35514;50.504;30.500;2023-06-22T08:58:52;11.68;;;6.45;;
35839;SDS011;35514;50.504;30.500;2023-06-22T09:01:23;9.07;;;6.53;;
35839;SDS011;35514;50.504;30.500;2023-06-22T09:03:51;8.30;;;6.38;;
35839;SDS011;35514;50.504;30.500;2023-06-22T09:06:24;7.68;;;5.75;;
35839;SDS011;35514;50.504;30.500;2023-06-22T09:08:52;11.13;;;6.65;;
35839;SDS011;35514;50.504;30.500;2023-06-22T09:11:20;11.00;;;6.65;;
35839;SDS011;35514;50.504;30.500;2023-06-22T09:13:48;10.55;;;6.85;;
35839;SDS011;35514;50.504;30.500;2023-06-22T09:16:17;10.80;;;7.20;;
35839;SDS011;35514;50.504;30.500;2023-06-22T09:18:46;13.23;;;6.95;;
35839;SDS011;35514;50.504;30.500;2023-06-22T09:21:14;13.98;;;7.22;;
35839;SDS011;35514;50.504;30.500;2023-06-22T09:23:42;10.82;;;6.45;;
35839;SDS011;35514;50.504;30.500;2023-06-22T09:26:12;12.20;;;6.93;;
35839;SDS011;35514;50.504;30.500;2023-06-22T09:28:40;19.38;;;6.70;;
35839;SDS011;35514;50.504;30.500;2023-06-22T09:31:07;10.23;;;6.57;;
35839;SDS011;35514;50.504;30.500;2023-06-22T09:33:37;11.38;;;6.45;;
35839;SDS011;35514;50.504;30.500;2023-06-22T09:36:05;11.60;;;6.35;;
35839;SDS011;35514;50.504;30.500;2023-06-22T09:38:34;13.00;;;6.45;;
35839;SDS011;35514;50.504;30.500;2023-06-22T09:41:02;11.80;;;6.60;;
35839;SDS011;35514;50.504;30.500;2023-06-22T09:43:30;12.90;;;6.75;;
35839;SDS011;35514;50.504;30.500;2023-06-22T09:45:58;11.15;;;6.53;;
35839;SDS011;35514;50.504;30.500;2023-06-22T09:48:26;8.07;;;6.05;;
35839;SDS011;35514;50.504;30.500;2023-06-22T09:50:56;9.13;;;5.90;;
35839;SDS011;35514;50.504;30.500;2023-06-22T09:53:24;9.60;;;5.28;;
35839;SDS011;35514;50.504;30.500;2023-06-22T09:55:55;7.47;;;5.80;;
35839;SDS011;35514;50.504;30.500;2023-06-22T09:58:23;12.90;;;6.22;;
35839;SDS011;35514;50.504;30.500;2023-06-22T10:00:51;11.13;;;6.25;;
35839;SDS011;35514;50.504;30.500;2023-06-22T10:03:20;12.07;;;5.85;;
35839;SDS011;35514;50.504;30.500;2023-06-22T10:05:49;8.60;;;6.20;;
35839;SDS011;35514;50.504;30.500;2023-06-22T10:08:18;31.08;;;6.60;;
35839;SDS011;35514;50.504;30.500;2023-06-22T10:10:46;14.05;;;6.78;;
35839;SDS011;35514;50.504;30.500;2023-06-22T10:13:16;12.05;;;5.88;;
35839;SDS011;35514;50.504;30.500;2023-06-22T10:15:45;12.23;;;8.60;;
35839;SDS011;35514;50.504;30.500;2023-06-22T10:18:16;8.55;;;5.75;;
35839;SDS011;35514;50.504;30.500;2023-06-22T10:20:44;9.65;;;5.38;;
35839;SDS011;35514;50.504;30.500;2023-06-22T10:23:11;7.07;;;5.30;;
35839;SDS011;35514;50.504;30.500;2023-06-22T10:25:40;7.35;;;4.80;;
35839;SDS011;35514;50.504;30.500;2023-06-22T10:28:08;8.48;;;5.15;;
35839;SDS011;35514;50.504;30.500;2023-06-22T10:30:36;8.70;;;5.57;;
35839;SDS011;35514;50.504;30.500;2023-06-22T10:33:04;8.90;;;5.43;;
35839;SDS011;35514;50.504;30.500;2023-06-22T10:35:32;7.70;;;5.68;;
35839;SDS011;35514;50.504;30.500;2023-06-22T10:37:59;8.05;;;5.55;;
35839;SDS011;35514;50.504;30.500;2023-06-22T10:40:27;7.78;;;4.93;;
35839;SDS011;35514;50.504;30.500;2023-06-22T10:42:56;9.07;;;6.20;;
35839;SDS011;35514;50.504;30.500;2023-06-22T10:45:24;9.02;;;5.47;;
35839;SDS011;35514;50.504;30.500;2023-06-22T10:47:54;9.50;;;5.15;;
35839;SDS011;35514;50.504;30.500;2023-06-22T10:50:22;6.70;;;5.20;;
35839;SDS011;35514;50.504;30.500;2023-06-22T10:52:51;6.22;;;5.10;;
35839;SDS011;35514;50.504;30.500;2023-06-22T10:55:19;11.30;;;5.57;;
35839;SDS011;35514;50.504;30.500;2023-06-22T10:57:46;10.05;;;5.95;;
35839;SDS011;35514;50.504;30.500;2023-06-22T11:00:16;10.85;;;6.03;;
35839;SDS011;35514;50.504;30.500;2023-06-22T11:02:44;16.17;;;6.22;;
35839;SDS011;35514;50.504;30.500;2023-06-22T11:05:14;10.23;;;6.22;;
35839;SDS011;35514;50.504;30.500;2023-06-22T11:07:42;6.90;;;5.57;;
35839;SDS011;35514;50.504;30.500;2023-06-22T11:10:12;7.78;;;5.30;;
35839;SDS011;35514;50.504;30.500;2023-06-22T11:12:40;7.70;;;5.40;;
35839;SDS011;35514;50.504;30.500;2023-06-22T11:15:09;8.50;;;5.63;;
35839;SDS011;35514;50.504;30.500;2023-06-22T11:17:38;8.77;;;5.50;;
35839;SDS011;35514;50.504;30.500;2023-06-22T11:20:06;7.88;;;5.05;;
35839;SDS011;35514;50.504;30.500;2023-06-22T11:22:37;7.35;;;5.03;;
35839;SDS011;35514;50.504;30.500;2023-06-22T11:25:06;7.57;;;4.97;;
35839;SDS011;35514;50.504;30.500;2023-06-22T11:27:34;7.35;;;5.28;;
35839;SDS011;35514;50.504;30.500;2023-06-22T11:30:02;6.85;;;5.10;;
35839;SDS011;35514;50.504;30.500;2023-06-22T11:32:30;12.55;;;5.55;;
35839;SDS011;35514;50.504;30.500;2023-06-22T11:34:59;7.43;;;5.05;;
35839;SDS011;35514;50.504;30.500;2023-06-22T11:37:27;6.25;;;4.93;;
35839;SDS011;35514;50.504;30.500;2023-06-22T11:39:55;8.20;;;4.25;;
35839;SDS011;35514;50.504;30.500;2023-06-22T11:42:32;6.97;;;4.63;;
35839;SDS011;35514;50.504;30.500;2023-06-22T11:45:00;6.47;;;4.28;;
35839;SDS011;35514;50.504;30.500;2023-06-22T11:47:31;8.00;;;4.43;;
35839;SDS011;35514;50.504;30.500;2023-06-22T11:50:04;4.30;;;3.65;;
35839;SDS011;35514;50.504;30.500;2023-06-22T11:52:33;6.78;;;3.92;;
35839;SDS011;35514;50.504;30.500;2023-06-22T11:55:02;11.25;;;4.47;;
35839;SDS011;35514;50.504;30.500;2023-06-22T11:57:32;6.43;;;3.78;;
35839;SDS011;35514;50.504;30.500;2023-06-22T12:00:00;6.72;;;4.00;;
35839;SDS011;35514;50.504;30.500;2023-06-22T12:02:32;9.32;;;4.60;;
35839;SDS011;35514;50.504;30.500;2023-06-22T12:05:05;6.80;;;4.00;;
35839;SDS011;35514;50.504;30.500;2023-06-22T12:07:34;6.68;;;4.25;;
35839;SDS011;35514;50.504;30.500;2023-06-22T12:10:02;5.82;;;4.15;;
35839;SDS011;35514;50.504;30.500;2023-06-22T12:12:30;10.15;;;4.13;;
35839;SDS011;35514;50.504;30.500;2023-06-22T12:14:57;5.53;;;4.38;;
35839;SDS011;35514;50.504;30.500;2023-06-22T12:17:29;6.40;;;4.40;;
35839;SDS011;35514;50.504;30.500;2023-06-22T12:19:58;8.40;;;3.90;;
35839;SDS011;35514;50.504;30.500;2023-06-22T12:22:27;5.30;;;3.75;;
35839;SDS011;35514;50.504;30.500;2023-06-22T12:24:55;6.43;;;3.75;;
35839;SDS011;35514;50.504;30.500;2023-06-22T12:27:23;5.22;;;3.58;;
35839;SDS011;35514;50.504;30.500;2023-06-22T12:29:50;5.93;;;3.70;;
35839;SDS011;35514;50.504;30.500;2023-06-22T12:32:18;5.43;;;3.72;;
35839;SDS011;35514;50.504;30.500;2023-06-22T12:34:46;5.28;;;4.03;;
35839;SDS011;35514;50.504;30.500;2023-06-22T12:37:14;6.88;;;4.38;;
35839;SDS011;35514;50.504;30.500;2023-06-22T12:39:43;7.95;;;4.00;;
35839;SDS011;35514;50.504;30.500;2023-06-22T12:42:11;6.05;;;3.95;;
35839;SDS011;35514;50.504;30.500;2023-06-22T12:44:39;7.95;;;4.38;;
35839;SDS011;35514;50.504;30.500;2023-06-22T12:47:07;9.98;;;4.82;;
35839;SDS011;35514;50.504;30.500;2023-06-22T12:49:36;7.20;;;4.20;;
35839;SDS011;35514;50.504;30.500;2023-06-22T12:52:08;5.82;;;4.32;;
35839;SDS011;35514;50.504;30.500;2023-06-22T12:54:36;11.35;;;5.15;;
35839;SDS011;35514;50.504;30.500;2023-06-22T12:57:20;8.37;;;4.60;;
35839;SDS011;35514;50.504;30.500;2023-06-22T12:59:49;10.05;;;4.60;;
35839;SDS011;35514;50.504;30.500;2023-06-22T13:02:17;8.50;;;4.40;;
35839;SDS011;35514;50.504;30.500;2023-06-22T13:04:45;9.00;;;4.30;;
35839;SDS011;35514;50.504;30.500;2023-06-22T13:07:13;8.43;;;4.90;;
35839;SDS011;35514;50.504;30.500;2023-06-22T13:09:48;7.53;;;4.35;;
35839;SDS011;35514;50.504;30.500;2023-06-22T13:12:19;9.50;;;4.72;;
35839;SDS011;35514;50.504;30.500;2023-06-22T13:14:49;7.40;;;5.00;;
35839;SDS011;35514;50.504;30.500;2023-06-22T13:17:16;8.48;;;4.82;;
35839;SDS011;35514;50.504;30.500;2023-06-22T13:19:44;7.18;;;5.28;;
35839;SDS011;35514;50.504;30.500;2023-06-22T13:22:25;10.88;;;4.80;;
35839;SDS011;35514;50.504;30.500;2023-06-22T13:24:53;7.95;;;5.10;;
35839;SDS011;35514;50.504;30.500;2023-06-22T13:27:21;14.30;;;4.88;;
35839;SDS011;35514;50.504;30.500;2023-06-22T13:29:51;11.95;;;4.55;;
35839;SDS011;35514;50.504;30.500;2023-06-22T13:32:18;8.20;;;4.70;;
35839;SDS011;35514;50.504;30.500;2023-06-22T13:34:46;9.60;;;4.32;;
35839;SDS011;35514;50.504;30.500;2023-06-22T13:37:14;6.43;;;4.47;;
35839;SDS011;35514;50.504;30.500;2023-06-22T13:39:42;6.10;;;4.50;;
35839;SDS011;35514;50.504;30.500;2023-06-22T13:42:10;8.73;;;5.22;;
35839;SDS011;35514;50.504;30.500;2023-06-22T13:44:37;6.30;;;4.35;;
35839;SDS011;35514;50.504;30.500;2023-06-22T13:47:07;9.05;;;5.40;;
35839;SDS011;35514;50.504;30.500;2023-06-22T13:49:35;7.60;;;4.88;;
35839;SDS011;35514;50.504;30.500;2023-06-22T13:52:04;7.35;;;4.55;;
35839;SDS011;35514;50.504;30.500;2023-06-22T13:54:36;6.30;;;4.78;;
35839;SDS011;35514;50.504;30.500;2023-06-22T13:57:04;13.50;;;4.75;;
35839;SDS011;35514;50.504;30.500;2023-06-22T13:59:32;7.55;;;5.15;;
35839;SDS011;35514;50.504;30.500;2023-06-22T14:02:00;6.30;;;4.47;;
35839;SDS011;35514;50.504;30.500;2023-06-22T14:04:29;6.43;;;4.43;;
35839;SDS011;35514;50.504;30.500;2023-06-22T14:06:57;12.05;;;4.90;;
35839;SDS011;35514;50.504;30.500;2023-06-22T14:09:25;8.48;;;4.97;;
35839;SDS011;35514;50.504;30.500;2023-06-22T14:11:53;11.45;;;4.30;;
35839;SDS011;35514;50.504;30.500;2023-06-22T14:14:21;11.02;;;4.50;;
35839;SDS011;35514;50.504;30.500;2023-06-22T14:16:49;6.60;;;4.40;;
35839;SDS011;35514;50.504;30.500;2023-06-22T14:19:17;10.82;;;4.72;;
35839;SDS011;35514;50.504;30.500;2023-06-22T14:21:47;8.88;;;4.65;;
35839;SDS011;35514;50.504;30.500;2023-06-22T14:24:20;9.25;;;4.15;;
35839;SDS011;35514;50.504;30.500;2023-06-22T14:26:56;9.95;;;5.53;;
35839;SDS011;35514;50.504;30.500;2023-06-22T14:29:25;9.32;;;5.20;;
35839;SDS011;35514;50.504;30.500;2023-06-22T14:31:52;7.57;;;5.40;;